Time;durP1;ratioP1;P1;durP2;ratioP2;P2;SDS_P1;SDS_P2;PMS_P1;PMS_P2;Temp;Humidity;BMP_temperature;BMP_pressure;BME280_temperature;BME280_humidity;BME280_pressure;Samples;Min_cycle;Max_cycle;Signal;HPM_P1;HPM_P2
2023/04/26 00:00:28;;;;;;;12.52;6.80;;;5.50;99.90;;;;;;4252218;28;20046;-60
2023/04/26 00:02:47;;;;;;;57.95;9.38;;;5.60;99.90;;;;;;4255992;28;20081;-60
2023/04/26 00:05:07;;;;;;;7.32;7.22;;;5.40;99.90;;;;;;4249075;27;20050;-60
2023/04/26 00:07:27;;;;;;;16.13;7.43;;;5.60;99.90;;;;;;4253130;28;20042;-60
2023/04/26 00:09:47;;;;;;;6.03;5.93;;;5.40;99.90;;;;;;4254773;28;20085;-60
2023/04/26 00:12:07;;;;;;;6.85;6.32;;;5.50;99.90;;;;;;4256316;28;20064;-60
2023/04/26 00:14:26;;;;;;;7.20;7.00;;;5.40;99.90;;;;;;4254198;28;20396;-60
2023/04/26 00:16:46;;;;;;;6.53;6.43;;;5.40;99.90;;;;;;4254841;28;20076;-60
2023/04/26 00:19:06;;;;;;;15.48;7.45;;;5.50;99.90;;;;;;4250589;28;20058;-60
2023/04/26 00:21:27;;;;;;;8.02;7.50;;;5.50;99.90;;;;;;4254780;28;20235;-60
2023/04/26 00:23:47;;;;;;;6.65;6.35;;;5.30;99.90;;;;;;4253897;28;20250;-60
2023/04/26 00:26:06;;;;;;;6.80;6.60;;;5.30;99.90;;;;;;4248876;28;20201;-60
2023/04/26 00:28:28;;;;;;;7.13;7.03;;;5.20;99.90;;;;;;4254643;28;20050;-59
2023/04/26 00:30:48;;;;;;;6.85;6.75;;;5.20;99.90;;;;;;4252272;28;20059;-59
2023/04/26 00:33:08;;;;;;;6.85;6.45;;;5.30;99.90;;;;;;4253022;28;20070;-60
2023/04/26 00:35:28;;;;;;;5.55;5.25;;;5.20;99.90;;;;;;4234309;28;20076;-60
2023/04/26 00:37:48;;;;;;;6.57;6.07;;;5.10;99.90;;;;;;4252525;28;20058;-60
2023/04/26 00:40:08;;;;;;;52.50;8.10;;;5.00;99.90;;;;;;4252804;28;20353;-60
2023/04/26 00:42:28;;;;;;;5.05;4.68;;;4.80;99.90;;;;;;4251662;28;20078;-60
2023/04/26 00:44:49;;;;;;;52.35;6.60;;;4.60;99.90;;;;;;4251694;28;20046;-60
2023/04/26 00:47:08;;;;;;;13.15;5.57;;;4.70;99.90;;;;;;4251483;28;20092;-60
2023/04/26 00:49:28;;;;;;;5.53;5.30;;;4.40;99.90;;;;;;4250789;28;20093;-60
2023/04/26 00:51:50;;;;;;;5.03;4.70;;;4.40;99.90;;;;;;4252308;28;20404;-60
2023/04/26 00:54:11;;;;;;;4.85;4.72;;;4.50;99.90;;;;;;4251822;28;20369;-60
2023/04/26 00:56:32;;;;;;;6.13;6.03;;;4.60;99.90;;;;;;4252214;28;20107;-60
2023/04/26 00:58:52;;;;;;;5.32;5.13;;;4.70;99.90;;;;;;4251141;28;20054;-60
2023/04/26 01:01:12;;;;;;;7.43;7.28;;;4.80;99.90;;;;;;4246188;28;20112;-60
2023/04/26 01:03:33;;;;;;;7.50;7.40;;;4.90;99.90;;;;;;4231514;22;20062;-91
2023/04/26 01:05:53;;;;;;;63.38;9.05;;;4.90;99.90;;;;;;4213514;28;20121;-91
2023/04/26 01:08:16;;;;;;;8.20;7.97;;;4.70;99.90;;;;;;4213712;28;20132;-91
2023/04/26 01:10:36;;;;;;;17.90;6.47;;;4.60;99.90;;;;;;4206788;28;20043;-91
2023/04/26 01:12:57;;;;;;;457.83;23.23;;;4.70;99.90;;;;;;4213467;28;20047;-91
2023/04/26 01:15:17;;;;;;;6.68;6.57;;;4.60;99.90;;;;;;4206957;28;20362;-91
2023/04/26 01:17:37;;;;;;;95.80;8.52;;;4.50;99.90;;;;;;4211735;28;20047;-91
2023/04/26 01:19:57;;;;;;;99.63;9.10;;;4.50;99.90;;;;;;4207397;28;20105;-91
2023/04/26 01:22:17;;;;;;;51.13;7.57;;;4.50;99.90;;;;;;4213061;28;20047;-91
2023/04/26 01:24:39;;;;;;;37.35;7.72;;;4.40;99.90;;;;;;4207210;28;20091;-91
2023/04/26 01:27:00;;;;;;;86.38;9.20;;;4.30;99.90;;;;;;4209923;28;20048;-91
2023/04/26 01:29:21;;;;;;;111.13;10.07;;;4.20;99.90;;;;;;4204037;28;20090;-91
2023/04/26 01:31:41;;;;;;;66.53;8.68;;;4.20;99.90;;;;;;4208997;28;20047;-91
2023/04/26 01:34:02;;;;;;;115.00;8.98;;;4.20;99.90;;;;;;4203032;28;20051;-91
2023/04/26 01:36:22;;;;;;;278.05;17.90;;;4.10;99.90;;;;;;4207608;28;20067;-91
2023/04/26 01:38:41;;;;;;;197.70;14.27;;;4.00;99.90;;;;;;4207145;28;20112;-91
2023/04/26 01:41:01;;;;;;;286.40;14.65;;;3.90;99.90;;;;;;4211084;28;20078;-91
2023/04/26 01:43:22;;;;;;;93.43;9.68;;;3.80;99.90;;;;;;4207216;28;20052;-91
2023/04/26 01:45:48;;;;;;;249.40;15.43;;;3.80;99.90;;;;;;4207992;28;20125;-91
2023/04/26 01:48:09;;;;;;;224.85;15.27;;;3.70;99.90;;;;;;4193758;28;20051;-90
2023/04/26 01:50:29;;;;;;;113.63;10.15;;;3.70;99.90;;;;;;4211121;28;20059;-91
2023/04/26 01:52:49;;;;;;;97.40;9.48;;;3.60;99.90;;;;;;4208930;28;20055;-91
2023/04/26 01:55:09;;;;;;;59.15;7.28;;;3.60;99.90;;;;;;4203579;28;20093;-91
2023/04/26 01:57:29;;;;;;;14.32;6.78;;;3.60;99.90;;;;;;4201221;28;20050;-91
2023/04/26 01:59:48;;;;;;;8.20;5.38;;;3.70;99.90;;;;;;4195540;28;20386;-91
2023/04/26 02:02:09;;;;;;;6.97;6.60;;;3.70;99.90;;;;;;4208015;28;20046;-91
2023/04/26 02:04:28;;;;;;;7.07;6.88;;;3.70;99.90;;;;;;4207184;28;20062;-90
2023/04/26 02:06:49;;;;;;;6.32;6.22;;;3.70;99.90;;;;;;4206340;28;20062;-91
2023/04/26 02:09:09;;;;;;;5.60;5.60;;;3.80;99.90;;;;;;4205962;28;20086;-91
2023/04/26 02:11:29;;;;;;;4.97;4.88;;;3.90;99.90;;;;;;4210475;28;20051;-91
2023/04/26 02:13:49;;;;;;;5.93;5.72;;;4.00;99.90;;;;;;4211825;28;20062;-91
2023/04/26 02:16:09;;;;;;;5.82;5.72;;;4.00;99.90;;;;;;4210306;28;20235;-91
2023/04/26 02:18:29;;;;;;;5.15;5.15;;;4.00;99.90;;;;;;4212329;28;20047;-91
2023/04/26 02:20:49;;;;;;;5.15;5.15;;;4.00;99.90;;;;;;4210962;28;20138;-91
2023/04/26 02:23:10;;;;;;;5.38;5.28;;;4.00;99.90;;;;;;4208847;28;20043;-90
2023/04/26 02:25:31;;;;;;;5.22;5.22;;;4.00;99.90;;;;;;4216534;28;20043;-91
2023/04/26 02:27:50;;;;;;;7.30;5.97;;;3.90;99.90;;;;;;4215142;28;20051;-90
2023/04/26 02:30:11;;;;;;;5.55;5.45;;;4.00;99.90;;;;;;4211699;28;20050;-91
2023/04/26 02:32:31;;;;;;;4.75;4.75;;;3.90;99.90;;;;;;4217233;28;20071;-91
2023/04/26 02:34:51;;;;;;;5.45;5.45;;;3.90;99.90;;;;;;4212236;28;20039;-91
2023/04/26 02:37:10;;;;;;;4.63;4.63;;;3.90;99.90;;;;;;4199114;28;20196;-91
2023/04/26 02:39:31;;;;;;;7.88;7.75;;;3.90;99.90;;;;;;4210429;28;20044;-91
2023/04/26 02:41:51;;;;;;;5.78;5.68;;;3.90;99.90;;;;;;4210619;28;20048;-91
2023/04/26 02:44:11;;;;;;;5.63;5.25;;;3.60;99.90;;;;;;4211838;28;20127;-91
2023/04/26 02:46:31;;;;;;;12.50;6.32;;;3.60;99.90;;;;;;4208966;28;20413;-91
2023/04/26 02:48:51;;;;;;;5.22;5.13;;;3.50;99.90;;;;;;4212941;28;20124;-91
2023/04/26 02:51:11;;;;;;;32.22;6.85;;;3.40;99.90;;;;;;4209426;28;20116;-91
2023/04/26 02:53:31;;;;;;;77.18;8.70;;;3.40;99.90;;;;;;4208185;28;20051;-92
2023/04/26 02:55:50;;;;;;;52.85;6.70;;;3.30;99.90;;;;;;4206973;28;20111;-91
2023/04/26 02:58:11;;;;;;;139.32;9.70;;;3.20;99.90;;;;;;4211847;28;20055;-91
2023/04/26 03:00:33;;;;;;;161.75;11.50;;;3.20;99.90;;;;;;4213015;28;20171;-91
2023/04/26 03:02:53;;;;;;;64.28;8.50;;;3.30;99.90;;;;;;4213935;28;20075;-91
2023/04/26 03:05:14;;;;;;;62.50;7.68;;;3.20;99.90;;;;;;4222619;28;20107;-91
2023/04/26 03:07:33;;;;;;;110.10;9.35;;;3.20;99.90;;;;;;4212399;28;20289;-91
2023/04/26 03:09:53;;;;;;;19.50;5.63;;;3.30;99.90;;;;;;4213504;28;20085;-91
2023/04/26 03:12:13;;;;;;;19.88;6.05;;;3.20;99.90;;;;;;4200950;28;20434;-91
2023/04/26 03:14:35;;;;;;;5.57;5.57;;;3.30;99.90;;;;;;4209691;28;20070;-91
2023/04/26 03:16:55;;;;;;;38.70;6.72;;;3.20;99.90;;;;;;4207050;28;20291;-90
2023/04/26 03:19:15;;;;;;;11.55;5.85;;;3.20;99.90;;;;;;4212328;28;20043;-90
2023/04/26 03:21:35;;;;;;;9.55;5.57;;;3.20;99.90;;;;;;4213798;28;20116;-91
2023/04/26 03:23:55;;;;;;;15.73;6.43;;;3.20;99.90;;;;;;4209552;28;20047;-90
2023/04/26 03:26:15;;;;;;;54.45;7.55;;;3.10;99.90;;;;;;4202788;28;20090;-91
2023/04/26 03:28:34;;;;;;;48.65;7.60;;;3.10;99.90;;;;;;4213387;28;20051;-90
2023/04/26 03:30:54;;;;;;;8.88;6.60;;;3.10;99.90;;;;;;4204022;28;20382;-90
2023/04/26 03:33:15;;;;;;;14.00;6.38;;;3.10;99.90;;;;;;4207661;28;20393;-90
2023/04/26 03:35:35;;;;;;;91.95;10.15;;;3.30;99.90;;;;;;4196306;28;20154;-90
2023/04/26 03:37:55;;;;;;;17.55;6.15;;;3.30;99.90;;;;;;4204091;28;20078;-90
2023/04/26 03:40:17;;;;;;;74.57;7.75;;;3.10;99.90;;;;;;4208700;28;20052;-90
2023/04/26 03:42:37;;;;;;;25.48;6.43;;;2.90;99.90;;;;;;4205088;28;20059;-90
2023/04/26 03:44:57;;;;;;;99.45;9.02;;;2.90;99.90;;;;;;4198476;28;20086;-90
2023/04/26 03:47:17;;;;;;;5.68;5.68;;;2.80;99.90;;;;;;4193075;28;20044;-90
2023/04/26 03:49:36;;;;;;;5.65;5.55;;;2.90;99.90;;;;;;4202865;28;20062;-90
2023/04/26 03:51:56;;;;;;;5.10;5.10;;;3.00;99.90;;;;;;4205248;28;20046;-90
2023/04/26 03:54:16;;;;;;;5.60;5.50;;;3.20;99.90;;;;;;4208565;28;20366;-90
2023/04/26 03:56:36;;;;;;;5.63;5.55;;;3.30;99.90;;;;;;4214112;28;20050;-90
2023/04/26 03:58:56;;;;;;;6.50;6.40;;;3.30;99.90;;;;;;4214187;28;20043;-90
2023/04/26 04:01:15;;;;;;;9.60;5.72;;;3.20;99.90;;;;;;4210690;28;20051;-90
2023/04/26 04:03:36;;;;;;;7.15;7.05;;;3.10;99.90;;;;;;4211004;28;20047;-90
2023/04/26 04:06:00;;;;;;;52.80;7.72;;;3.10;99.90;;;;;;4217041;28;20089;-90
2023/04/26 04:08:20;;;;;;;5.00;5.00;;;3.00;99.90;;;;;;4207766;28;20063;-90
2023/04/26 04:10:41;;;;;;;100.95;10.20;;;3.00;99.90;;;;;;4204420;28;20067;-90
2023/04/26 04:13:01;;;;;;;8.90;5.15;;;2.90;99.90;;;;;;4214239;28;20043;-90
2023/04/26 04:15:20;;;;;;;25.80;5.95;;;2.80;99.90;;;;;;4209974;28;20179;-90
2023/04/26 04:17:40;;;;;;;83.50;8.15;;;2.90;99.90;;;;;;4213363;28;20422;-89
2023/04/26 04:20:04;;;;;;;5.35;5.25;;;2.70;99.90;;;;;;4210254;28;20048;-90
2023/04/26 04:22:24;;;;;;;6.53;6.43;;;2.90;99.90;;;;;;4210604;28;20047;-90
2023/04/26 04:24:43;;;;;;;23.85;6.20;;;3.00;99.90;;;;;;4199376;28;20046;-90
2023/04/26 04:27:04;;;;;;;5.15;4.80;;;2.90;99.90;;;;;;4208482;28;20102;-90
2023/04/26 04:29:24;;;;;;;26.95;6.07;;;2.80;99.90;;;;;;4206951;28;20043;-90
2023/04/26 04:31:44;;;;;;;18.10;5.32;;;2.80;99.90;;;;;;4207022;28;20051;-90
2023/04/26 04:34:03;;;;;;;5.63;5.60;;;2.70;99.90;;;;;;4203465;28;20122;-90
2023/04/26 04:36:25;;;;;;;5.88;5.88;;;2.80;99.90;;;;;;4204260;28;20039;-90
2023/04/26 04:38:45;;;;;;;5.75;5.68;;;2.90;99.90;;;;;;4205726;28;20047;-90
2023/04/26 04:41:05;;;;;;;5.40;5.40;;;2.90;99.90;;;;;;4208988;28;20107;-90
2023/04/26 04:43:25;;;;;;;6.05;6.00;;;2.80;99.90;;;;;;4206398;28;20074;-90
2023/04/26 04:45:45;;;;;;;5.00;5.00;;;2.80;99.90;;;;;;4202772;28;20051;-90
2023/04/26 04:48:05;;;;;;;4.90;4.90;;;2.80;99.90;;;;;;4215379;28;20125;-90
2023/04/26 04:50:25;;;;;;;5.25;5.25;;;2.90;99.90;;;;;;4209065;28;20059;-90
2023/04/26 04:52:45;;;;;;;7.53;7.07;;;2.90;99.90;;;;;;4211619;28;20107;-90
2023/04/26 04:55:05;;;;;;;5.45;5.35;;;2.90;99.90;;;;;;4210279;28;20137;-90
2023/04/26 04:57:26;;;;;;;7.75;7.65;;;3.00;99.90;;;;;;4212857;28;20052;-90
2023/04/26 04:59:46;;;;;;;7.43;7.32;;;2.80;99.90;;;;;;4211198;28;20103;-90
2023/04/26 05:02:06;;;;;;;6.03;5.93;;;2.80;99.90;;;;;;4211654;28;20063;-90
2023/04/26 05:04:26;;;;;;;5.47;5.28;;;2.90;99.90;;;;;;4213773;28;20044;-90
2023/04/26 05:06:46;;;;;;;4.93;4.65;;;3.00;99.90;;;;;;4198794;28;20283;-90
2023/04/26 05:09:07;;;;;;;6.43;6.13;;;3.10;99.90;;;;;;4205352;28;20119;-90
2023/04/26 05:11:27;;;;;;;6.68;6.35;;;3.10;99.90;;;;;;4206730;28;20409;-90
2023/04/26 05:13:47;;;;;;;6.80;6.50;;;3.10;99.90;;;;;;4214322;28;20070;-90
2023/04/26 05:16:08;;;;;;;6.93;6.68;;;3.20;99.90;;;;;;4215824;28;20056;-90
2023/04/26 05:18:28;;;;;;;5.22;5.03;;;3.10;99.90;;;;;;4211478;28;20043;-91
2023/04/26 05:20:48;;;;;;;8.32;8.15;;;2.90;99.90;;;;;;4214121;28;20047;-91
2023/04/26 05:23:07;;;;;;;7.55;7.25;;;3.00;99.90;;;;;;4213128;28;20046;-91
2023/04/26 05:25:27;;;;;;;11.68;9.10;;;3.20;99.90;;;;;;4207246;28;20127;-91
2023/04/26 05:27:47;;;;;;;11.45;8.90;;;3.20;99.90;;;;;;4208767;28;20062;-91
2023/04/26 05:30:08;;;;;;;145.40;14.13;;;3.40;99.90;;;;;;4210408;28;20357;-91
2023/04/26 05:32:27;;;;;;;240.40;16.88;;;3.30;99.90;;;;;;4202580;28;20074;-91
2023/04/26 05:34:47;;;;;;;19.00;7.00;;;3.10;99.90;;;;;;4207853;28;20051;-91
2023/04/26 05:37:07;;;;;;;102.68;12.13;;;3.20;99.90;;;;;;4205798;28;20059;-91
2023/04/26 05:39:27;;;;;;;43.58;11.63;;;3.30;99.90;;;;;;4207866;28;20039;-91
2023/04/26 05:41:47;;;;;;;9.85;9.55;;;3.20;99.90;;;;;;4207356;28;20108;-90
2023/04/26 05:44:06;;;;;;;8.65;8.45;;;3.30;99.90;;;;;;4209049;28;20095;-90
2023/04/26 05:46:26;;;;;;;10.68;10.27;;;3.60;99.90;;;;;;4219627;28;20405;-91
2023/04/26 05:48:47;;;;;;;9.73;9.40;;;3.90;99.90;;;;;;4209500;28;20064;-91
2023/04/26 05:51:06;;;;;;;64.00;12.50;;;3.80;99.90;;;;;;4205835;28;20111;-91
2023/04/26 05:53:26;;;;;;;126.32;13.80;;;3.80;99.90;;;;;;4213140;28;20082;-91
2023/04/26 05:55:46;;;;;;;78.57;11.43;;;3.70;99.90;;;;;;4207220;28;20044;-91
2023/04/26 05:58:07;;;;;;;7.55;7.40;;;3.70;99.90;;;;;;4204030;28;20082;-90
2023/04/26 06:00:26;;;;;;;6.88;6.78;;;3.80;99.90;;;;;;4203715;28;20043;-90
2023/04/26 06:02:46;;;;;;;7.88;7.70;;;3.80;99.90;;;;;;4208733;28;20051;-91
2023/04/26 06:05:07;;;;;;;6.55;6.32;;;3.90;99.90;;;;;;4207646;28;20142;-90
2023/04/26 06:07:27;;;;;;;7.63;7.45;;;4.00;99.90;;;;;;4209665;28;20103;-91
2023/04/26 06:09:47;;;;;;;7.00;6.90;;;4.10;99.90;;;;;;4205789;28;20087;-90
2023/04/26 06:12:08;;;;;;;7.20;6.80;;;4.10;99.90;;;;;;4204287;28;20243;-91
2023/04/26 06:14:27;;;;;;;8.15;7.47;;;4.30;99.90;;;;;;4215828;28;20051;-91
2023/04/26 06:16:50;;;;;;;6.05;5.72;;;4.60;99.90;;;;;;4210527;28;20048;-91
2023/04/26 06:19:10;;;;;;;4.43;4.43;;;4.60;99.90;;;;;;4209494;28;20043;-92
2023/04/26 06:21:30;;;;;;;5.68;5.25;;;4.70;99.90;;;;;;4209465;28;20110;-91
2023/04/26 06:23:50;;;;;;;5.80;5.32;;;4.80;99.90;;;;;;4209707;28;20051;-91
2023/04/26 06:26:10;;;;;;;3.70;3.60;;;5.10;99.90;;;;;;4200118;28;20083;-92
2023/04/26 06:28:31;;;;;;;5.03;5.03;;;5.20;99.90;;;;;;4214110;28;20051;-91
2023/04/26 06:30:51;;;;;;;4.15;4.15;;;5.30;99.90;;;;;;4209016;28;20055;-92
2023/04/26 06:33:12;;;;;;;4.65;4.43;;;5.40;99.90;;;;;;4208600;28;20043;-92
2023/04/26 06:35:32;;;;;;;4.15;4.15;;;5.70;99.90;;;;;;4200950;28;20047;-92
2023/04/26 06:37:52;;;;;;;3.53;3.42;;;5.80;99.90;;;;;;4210620;28;20051;-92
2023/04/26 06:40:14;;;;;;;4.10;3.85;;;6.00;99.90;;;;;;4210174;28;20048;-93
2023/04/26 06:42:34;;;;;;;3.80;3.58;;;6.20;99.90;;;;;;4208656;28;20108;-92
2023/04/26 06:44:54;;;;;;;3.15;3.15;;;6.50;99.90;;;;;;4213581;28;20484;-93
2023/04/26 06:47:14;;;;;;;2.90;2.90;;;7.30;99.90;;;;;;4201959;28;20393;-92
2023/04/26 06:49:34;;;;;;;3.05;2.85;;;7.40;99.90;;;;;;4207782;28;20052;-92
2023/04/26 06:51:54;;;;;;;3.00;3.00;;;7.30;99.90;;;;;;4211458;28;20043;-93
2023/04/26 06:54:14;;;;;;;3.05;3.05;;;7.40;99.90;;;;;;4206589;28;20048;-93
2023/04/26 06:56:35;;;;;;;2.67;2.63;;;7.50;99.90;;;;;;4203949;28;20043;-93
2023/04/26 06:59:02;;;;;;;3.00;2.67;;;7.60;99.90;;;;;;4209068;28;20105;-93
2023/04/26 07:01:22;;;;;;;3.38;3.38;;;7.70;99.90;;;;;;4209954;28;20082;-94
2023/04/26 07:03:42;;;;;;;2.75;2.75;;;7.70;99.90;;;;;;4212023;28;20074;-93
2023/04/26 07:06:03;;;;;;;2.80;2.80;;;7.80;99.90;;;;;;4206194;28;20089;-94
2023/04/26 07:08:23;;;;;;;2.33;2.33;;;8.00;99.90;;;;;;4210909;28;20416;-92
2023/04/26 07:10:43;;;;;;;2.90;2.90;;;8.00;99.90;;;;;;4208061;28;20055;-92
2023/04/26 07:13:02;;;;;;;2.88;2.88;;;8.10;99.90;;;;;;4207914;28;20119;-92
2023/04/26 07:15:22;;;;;;;2.90;2.70;;;8.30;99.90;;;;;;4213825;28;20111;-92
2023/04/26 07:17:42;;;;;;;3.65;3.33;;;8.50;99.90;;;;;;4211976;28;20404;-92
2023/04/26 07:20:03;;;;;;;3.50;2.90;;;8.60;99.90;;;;;;4197245;28;20043;-93
2023/04/26 07:22:23;;;;;;;2.15;2.03;;;8.90;99.90;;;;;;4214627;28;20420;-93
2023/04/26 07:24:42;;;;;;;8.85;3.10;;;8.90;99.90;;;;;;4211144;28;20048;-94
2023/04/26 07:27:03;;;;;;;5.65;2.05;;;9.30;99.90;;;;;;4205272;28;20067;-94
2023/04/26 07:29:22;;;;;;;2.17;2.08;;;9.60;99.90;;;;;;4211584;28;20047;-93
2023/04/26 07:31:43;;;;;;;2.08;1.98;;;9.60;99.90;;;;;;4211527;28;20047;-95
2023/04/26 07:34:02;;;;;;;1.92;1.83;;;10.20;99.90;;;;;;4205180;28;20038;-94
2023/04/26 07:36:22;;;;;;;3.15;1.73;;;10.80;99.90;;;;;;4207632;28;20402;-94
2023/04/26 07:38:44;;;;;;;3.88;1.70;;;10.70;99.90;;;;;;4206490;28;20051;-93
2023/04/26 07:41:03;;;;;;;1.33;1.33;;;10.80;99.90;;;;;;4213424;28;20105;-95
2023/04/26 07:43:23;;;;;;;2.03;1.98;;;10.80;99.90;;;;;;4207714;28;20086;-94
2023/04/26 07:45:43;;;;;;;2.10;1.95;;;11.00;99.90;;;;;;4198866;28;20062;-93
2023/04/26 07:48:03;;;;;;;3.65;1.95;;;11.10;99.90;;;;;;4196181;28;20052;-93
2023/04/26 07:50:23;;;;;;;1.20;1.20;;;11.30;99.90;;;;;;4194280;28;20115;-94
2023/04/26 07:52:43;;;;;;;1.13;1.13;;;11.40;99.90;;;;;;4207238;28;20057;-94
2023/04/26 07:55:03;;;;;;;1.10;1.10;;;12.20;99.90;;;;;;4205396;28;20046;-93
2023/04/26 07:57:23;;;;;;;1.48;1.30;;;12.70;99.90;;;;;;4202888;28;20050;-94
2023/04/26 07:59:43;;;;;;;2.70;2.22;;;12.60;99.90;;;;;;4211432;28;20100;-87
2023/04/26 08:02:03;;;;;;;1.98;1.98;;;12.50;99.90;;;;;;4201392;28;20235;-88
2023/04/26 08:04:32;;;;;;;1.60;1.50;;;12.50;99.90;;;;;;4205761;28;20107;-88
2023/04/26 08:06:52;;;;;;;2.35;2.25;;;12.80;99.90;;;;;;4207097;28;20089;-88
2023/04/26 08:09:12;;;;;;;1.33;1.33;;;12.80;99.90;;;;;;4206979;28;20434;-88
2023/04/26 08:11:31;;;;;;;1.73;1.63;;;13.30;99.90;;;;;;4210147;28;20231;-88
2023/04/26 08:13:51;;;;;;;2.00;2.00;;;13.30;99.90;;;;;;4210442;28;20055;-88
2023/04/26 08:16:12;;;;;;;1.50;1.50;;;13.40;99.90;;;;;;4216635;28;20081;-88
2023/04/26 08:18:32;;;;;;;3.90;1.42;;;13.60;99.90;;;;;;4212846;28;20043;-88
2023/04/26 08:20:54;;;;;;;1.55;1.50;;;13.60;99.90;;;;;;4201475;28;20377;-87
2023/04/26 08:23:14;;;;;;;1.70;1.70;;;13.90;99.90;;;;;;4211263;28;20294;-87
2023/04/26 08:25:33;;;;;;;1.58;1.58;;;14.20;99.90;;;;;;4208861;28;20054;-87
2023/04/26 08:27:54;;;;;;;1.40;1.40;;;14.10;99.90;;;;;;4206185;28;20342;-87
2023/04/26 08:30:13;;;;;;;1.63;1.63;;;14.00;99.90;;;;;;4213616;28;20086;-87
2023/04/26 08:32:34;;;;;;;1.55;1.55;;;14.20;99.90;;;;;;4211720;28;20086;-87
2023/04/26 08:34:54;;;;;;;2.55;2.45;;;14.70;99.90;;;;;;4206464;28;20251;-88
2023/04/26 08:37:14;;;;;;;1.40;1.40;;;14.80;99.90;;;;;;4210238;28;20158;-88
2023/04/26 08:39:33;;;;;;;1.30;1.30;;;14.80;99.90;;;;;;4209961;28;20043;-87
2023/04/26 08:41:56;;;;;;;1.20;1.20;;;14.90;99.90;;;;;;4206251;28;20379;-87
2023/04/26 08:44:22;;;;;;;1.10;1.10;;;15.10;99.90;;;;;;4210999;28;20079;-87
2023/04/26 08:47:05;;;;;;;1.65;1.65;;;15.10;99.90;;;;;;4219533;28;20043;-88
2023/04/26 08:49:28;;;;;;;2.17;1.63;;;15.40;99.90;;;;;;4207928;28;20110;-88
2023/04/26 08:51:50;;;;;;;1.10;1.10;;;15.60;99.90;;;;;;4209037;28;20361;-87
2023/04/26 08:54:11;;;;;;;1.25;1.25;;;15.70;99.90;;;;;;4214933;28;20051;-87
2023/04/26 08:56:34;;;;;;;1.10;1.10;;;16.00;99.90;;;;;;4206015;28;20079;-87
2023/04/26 08:58:54;;;;;;;1.10;1.10;;;16.20;99.90;;;;;;4209556;28;20082;-88
2023/04/26 09:01:14;;;;;;;1.10;1.10;;;16.30;98.20;;;;;;4212769;28;20551;-88
2023/04/26 09:03:35;;;;;;;1.65;1.10;;;16.20;99.00;;;;;;4212984;28;20285;-88
2023/04/26 09:05:55;;;;;;;1.00;1.00;;;16.40;98.80;;;;;;4207376;28;20121;-88
2023/04/26 09:08:19;;;;;;;4.20;1.00;;;16.60;99.80;;;;;;4213588;28;20145;-87
2023/04/26 09:10:39;;;;;;;1.10;1.10;;;16.90;97.90;;;;;;4206342;28;20048;-87
2023/04/26 09:12:59;;;;;;;2.90;1.00;;;17.30;99.60;;;;;;4205082;28;20052;-87
2023/04/26 09:15:24;;;;;;;1.00;1.00;;;17.40;99.00;;;;;;4193015;28;20051;-87
2023/04/26 09:17:44;;;;;;;0.90;0.90;;;17.40;97.80;;;;;;4216810;28;20281;-88
2023/04/26 09:20:28;;;;;;;0.90;0.90;;;16.90;95.60;;;;;;4208503;28;20056;-88
2023/04/26 09:23:05;;;;;;;1.00;1.00;;;17.20;97.40;;;;;;4220709;28;20048;-85
2023/04/26 09:25:27;;;;;;;0.82;0.82;;;17.70;97.60;;;;;;4202492;28;20255;-85
2023/04/26 09:27:50;;;;;;;1.00;0.90;;;17.90;98.30;;;;;;4204466;28;20047;-92
2023/04/26 09:30:19;;;;;;;0.90;0.90;;;18.20;98.70;;;;;;4194478;28;20120;-92
2023/04/26 09:32:50;;;;;;;0.90;0.90;;;17.90;97.20;;;;;;4196708;28;20063;-91
2023/04/26 09:35:31;;;;;;;1.00;1.00;;;18.10;96.70;;;;;;4221791;28;20450;-93
2023/04/26 09:38:00;;;;;;;0.80;0.80;;;17.80;95.30;;;;;;4206988;28;20086;-92
2023/04/26 09:40:31;;;;;;;1.30;0.90;;;17.80;95.10;;;;;;4206276;28;20231;-92
2023/04/26 09:43:06;;;;;;;0.90;0.90;;;18.10;95.20;;;;;;4211779;28;20051;-93
2023/04/26 09:45:27;;;;;;;1.25;0.90;;;17.80;92.60;;;;;;4212477;28;20035;-92
2023/04/26 09:47:48;;;;;;;0.82;0.82;;;17.70;93.70;;;;;;4208930;28;20079;-92
2023/04/26 09:50:09;;;;;;;0.80;0.80;;;18.30;93.00;;;;;;4213323;28;20290;-93
2023/04/26 09:52:28;;;;;;;0.80;0.80;;;18.70;93.50;;;;;;4217381;28;20050;-91
2023/04/26 09:54:51;;;;;;;0.70;0.70;;;19.00;95.20;;;;;;4213746;28;20082;-91
2023/04/26 09:57:13;;;;;;;1.33;0.80;;;18.30;92.20;;;;;;4212579;28;20055;-92
2023/04/26 09:59:47;;;;;;;1.20;0.80;;;18.50;92.50;;;;;;4222834;28;20050;-93
2023/04/26 10:02:18;;;;;;;0.80;0.80;;;18.60;93.50;;;;;;4211269;28;20040;-92
2023/04/26 10:04:38;;;;;;;0.80;0.80;;;18.60;92.90;;;;;;4215673;28;20116;-93
2023/04/26 10:07:01;;;;;;;0.90;0.90;;;18.10;93.20;;;;;;4206641;28;20047;-93
2023/04/26 10:09:21;;;;;;;0.85;0.85;;;19.00;95.70;;;;;;4207308;28;20047;-93
2023/04/26 10:11:42;;;;;;;0.80;0.80;;;19.50;94.60;;;;;;4206915;28;20090;-92
2023/04/26 10:14:03;;;;;;;0.75;0.75;;;19.00;90.70;;;;;;4208549;28;20090;-93
2023/04/26 10:16:23;;;;;;;0.80;0.80;;;19.20;94.20;;;;;;4211612;28;20051;-93
2023/04/26 10:18:43;;;;;;;0.80;0.80;;;18.70;90.60;;;;;;4211084;28;20051;-93
2023/04/26 10:21:13;;;;;;;0.80;0.80;;;19.00;91.50;;;;;;4205708;28;20055;-93
2023/04/26 10:23:34;;;;;;;0.90;0.90;;;19.30;92.60;;;;;;4213576;28;20055;-93
2023/04/26 10:25:55;;;;;;;0.82;0.80;;;18.80;92.10;;;;;;4210458;28;20100;-93
2023/04/26 10:28:17;;;;;;;0.80;0.80;;;18.60;91.40;;;;;;4207245;28;20042;-93
2023/04/26 10:30:57;;;;;;;0.80;0.80;;;18.60;89.40;;;;;;4208460;28;20258;-94
2023/04/26 10:33:20;;;;;;;0.80;0.80;;;18.60;90.50;;;;;;4210798;28;20077;-92
2023/04/26 10:36:00;;;;;;;0.80;0.80;;;18.90;90.40;;;;;;4212122;28;20067;-95
2023/04/26 10:38:20;;;;;;;0.80;0.80;;;19.70;91.70;;;;;;4217378;28;20055;-94
2023/04/26 10:40:40;;;;;;;0.80;0.80;;;20.10;90.10;;;;;;4197611;28;20067;-94
2023/04/26 10:43:14;;;;;;;0.80;0.80;;;19.30;92.00;;;;;;4208302;28;20052;-94
2023/04/26 10:45:34;;;;;;;0.90;0.90;;;19.40;92.40;;;;;;4213688;28;20159;-95
2023/04/26 10:48:30;;;;;;;0.80;0.80;;;19.10;92.90;;;;;;4219848;28;20042;-94
2023/04/26 10:51:12;;;;;;;0.80;0.80;;;19.50;91.40;;;;;;4211736;28;20105;-94
2023/04/26 10:53:45;;;;;;;0.80;0.80;;;19.70;90.80;;;;;;4220570;28;20075;-94
2023/04/26 10:56:05;;;;;;;0.80;0.80;;;19.00;88.20;;;;;;4213403;28;20079;-94
2023/04/26 10:58:28;;;;;;;1.00;1.00;;;19.60;88.90;;;;;;4221763;28;20067;-95
2023/04/26 11:01:03;;;;;;;0.80;0.80;;;20.00;92.30;;;;;;4224912;28;20058;-93
2023/04/26 11:03:29;;;;;;;1.00;1.00;;;20.20;91.00;;;;;;4214348;28;20051;-95
2023/04/26 11:05:54;;;;;;;0.70;0.70;;;20.10;88.40;;;;;;4218220;28;20063;-94
2023/04/26 11:08:15;;;;;;;0.80;0.80;;;20.40;90.60;;;;;;4224749;28;20104;-94
2023/04/26 11:10:37;;;;;;;0.80;0.80;;;20.70;91.90;;;;;;4216554;28;20078;-94
2023/04/26 11:13:02;;;;;;;0.70;0.70;;;19.50;91.00;;;;;;4220843;28;20123;-94
2023/04/26 11:15:23;;;;;;;0.80;0.80;;;19.50;90.80;;;;;;4214045;28;20043;-93
2023/04/26 11:17:45;;;;;;;1.75;0.70;;;19.70;91.30;;;;;;4228394;28;20046;-95
2023/04/26 11:20:11;;;;;;;0.75;0.70;;;19.80;89.00;;;;;;4224519;28;20039;-95
2023/04/26 11:22:42;;;;;;;0.70;0.70;;;20.10;83.50;;;;;;4226761;28;20058;-95
2023/04/26 11:25:02;;;;;;;0.70;0.70;;;20.40;88.70;;;;;;4223672;28;20075;-96
2023/04/26 11:27:27;;;;;;;1.33;0.70;;;20.60;92.20;;;;;;4209279;28;20084;-95
2023/04/26 11:29:46;;;;;;;0.68;0.60;;;20.60;85.00;;;;;;4214617;28;20324;-96
2023/04/26 11:32:13;;;;;;;0.63;0.63;;;21.20;83.60;;;;;;4218724;28;20044;-95
2023/04/26 11:34:35;;;;;;;0.80;0.70;;;20.60;84.30;;;;;;4219289;28;20085;-96
2023/04/26 11:37:06;;;;;;;0.70;0.70;;;19.90;84.00;;;;;;4229721;28;20065;-95
2023/04/26 11:39:27;;;;;;;1.30;0.70;;;20.00;82.80;;;;;;4214440;28;20107;-95
2023/04/26 11:41:50;;;;;;;0.70;0.70;;;20.90;87.80;;;;;;4214943;28;20043;-91
2023/04/26 11:44:11;;;;;;;0.70;0.70;;;21.00;86.50;;;;;;4216185;28;20043;-90
2023/04/26 11:46:31;;;;;;;1.10;0.70;;;21.00;81.50;;;;;;4217619;28;20090;-90
2023/04/26 11:48:52;;;;;;;0.70;0.70;;;20.90;82.20;;;;;;4203268;28;20059;-91
2023/04/26 11:51:12;;;;;;;0.70;0.70;;;20.80;83.10;;;;;;4205059;28;20047;-91
2023/04/26 11:53:42;;;;;;;0.70;0.70;;;20.50;85.00;;;;;;4196924;28;20063;-91
2023/04/26 11:56:13;;;;;;;1.65;0.80;;;19.80;82.90;;;;;;4206605;28;20048;-91
2023/04/26 11:58:32;;;;;;;0.90;0.90;;;20.40;89.60;;;;;;4210430;28;20097;-90
2023/04/26 12:01:03;;;;;;;0.77;0.70;;;21.10;84.60;;;;;;4206620;28;20059;-90
2023/04/26 12:03:27;;;;;;;0.70;0.70;;;21.10;90.30;;;;;;4210091;28;20123;-90
2023/04/26 12:05:56;;;;;;;0.70;0.70;;;20.50;81.80;;;;;;4209718;28;20042;-81
2023/04/26 12:08:17;;;;;;;0.70;0.70;;;20.00;87.10;;;;;;4206298;28;20044;-80
2023/04/26 12:10:38;;;;;;;0.70;0.70;;;19.60;82.60;;;;;;4208357;28;20137;-80
2023/04/26 12:12:58;;;;;;;0.70;0.70;;;19.00;86.30;;;;;;4219092;28;20067;-80
2023/04/26 12:15:22;;;;;;;0.70;0.70;;;19.50;84.90;;;;;;4205873;28;20366;-81
2023/04/26 12:17:56;;;;;;;0.75;0.75;;;20.20;81.70;;;;;;4207105;28;20051;-80
2023/04/26 12:20:16;;;;;;;0.77;0.77;;;20.50;86.50;;;;;;4206014;28;20428;-81